Time;durP1;ratioP1;P1;durP2;ratioP2;P2;SDS_P1;SDS_P2;PMS_P1;PMS_P2;Temp;Humidity;BMP_temperature;BMP_pressure;BME280_temperature;BME280_humidity;BME280_pressure;Samples;Min_cycle;Max_cycle;Signal;HPM_P1;HPM_P2
2022/05/08 00:02:52;;;;;;;1.70;1.60;;;;;;;20.08;43.93;102496.66;16147930;19;129413;-58
2022/05/08 00:08:14;;;;;;;2.47;1.75;;;;;;;20.08;44.11;102493.03;16146940;19;129041;-58
2022/05/08 00:13:36;;;;;;;2.63;1.40;;;;;;;20.07;44.05;102488.53;16145180;19;129013;-58
2022/05/08 00:18:57;;;;;;;1.65;1.55;;;;;;;20.07;44.11;102491.31;16140479;19;129418;-58
2022/05/08 00:24:19;;;;;;;1.58;1.33;;;;;;;20.05;43.87;102491.53;16139588;19;130530;-58
2022/05/08 00:29:41;;;;;;;2.88;1.60;;;;;;;20.05;43.95;102496.25;16146428;19;129250;-57
2022/05/08 00:35:03;;;;;;;2.65;1.23;;;;;;;20.04;44.08;102508.44;16141917;19;129508;-58
2022/05/08 00:40:24;;;;;;;1.58;1.30;;;;;;;20.04;43.60;102500.09;16144174;19;129420;-58
2022/05/08 00:45:47;;;;;;;3.38;1.50;;;;;;;20.03;43.33;102509.50;16145681;19;129641;-58
2022/05/08 00:51:11;;;;;;;2.47;1.40;;;;;;;20.02;43.62;102505.03;16145198;19;129397;-58
2022/05/08 00:56:33;;;;;;;1.92;1.75;;;;;;;19.98;43.37;102513.75;16139790;19;129512;-58
2022/05/08 01:01:55;;;;;;;1.67;1.20;;;;;;;19.94;43.42;102506.91;16144585;19;129607;-57
2022/05/08 01:07:16;;;;;;;2.97;1.20;;;;;;;19.95;43.25;102507.78;16139216;19;129462;-58
2022/05/08 01:12:44;;;;;;;1.40;1.30;;;;;;;19.94;43.23;102501.34;16138175;19;130262;-58
2022/05/08 01:18:06;;;;;;;2.20;1.52;;;;;;;19.93;43.34;102499.69;16136829;19;129654;-58
2022/05/08 01:23:29;;;;;;;3.45;1.30;;;;;;;19.93;43.31;102508.00;16141523;19;130064;-57
2022/05/08 01:28:50;;;;;;;2.13;1.00;;;;;;;19.91;43.04;102507.38;16142519;19;128965;-57
2022/05/08 01:34:12;;;;;;;1.85;1.10;;;;;;;19.92;43.11;102509.06;16140838;19;129669;-58
2022/05/08 01:39:34;;;;;;;1.75;1.15;;;;;;;19.89;43.00;102509.50;16139230;19;129349;-58
2022/05/08 01:44:56;;;;;;;2.47;1.27;;;;;;;19.88;43.12;102518.91;16140266;19;129673;-58
2022/05/08 01:50:17;;;;;;;1.60;1.10;;;;;;;19.88;42.96;102521.69;16139464;19;129992;-58
2022/05/08 01:55:39;;;;;;;3.80;1.23;;;;;;;19.86;42.95;102515.47;16136687;19;130205;-58
2022/05/08 02:01:04;;;;;;;1.33;1.13;;;;;;;19.86;42.54;102518.25;16139308;19;132113;-58
2022/05/08 02:06:26;;;;;;;;;;;;;;;19.81;42.57;102515.28;16139150;19;129920;-58
2022/05/08 02:11:48;;;;;;;1.95;1.00;;;;;;;19.81;42.61;102523.63;16139700;19;130847;-58
2022/05/08 02:17:10;;;;;;;2.35;1.10;;;;;;;19.78;42.80;102524.03;16131423;19;128947;-58
2022/05/08 02:22:36;;;;;;;1.77;1.10;;;;;;;19.79;42.33;102522.97;16131997;19;130756;-58
2022/05/08 02:27:58;;;;;;;1.92;1.00;;;;;;;19.79;42.43;102522.97;16138583;19;129557;-58
2022/05/08 02:33:21;;;;;;;1.80;1.30;;;;;;;19.78;42.30;102524.03;16137012;19;130137;-58
2022/05/08 02:38:43;;;;;;;2.08;1.00;;;;;;;19.77;42.29;102527.88;16138326;19;129294;-58
2022/05/08 02:44:05;;;;;;;2.28;1.10;;;;;;;19.79;42.42;102528.53;16136739;19;129303;-58
2022/05/08 02:49:27;;;;;;;1.95;1.10;;;;;;;19.78;42.41;102527.66;16148460;19;129020;-58
2022/05/08 02:54:48;;;;;;;1.13;0.85;;;;;;;19.79;42.39;102520.19;16147885;19;129324;-58
2022/05/08 03:00:10;;;;;;;2.08;0.90;;;;;;;19.78;42.08;102518.50;16148097;19;129012;-58
2022/05/08 03:05:32;;;;;;;1.80;1.08;;;;;;;19.76;42.50;102520.63;16149609;19;129349;-58
2022/05/08 03:16:35;;;;;;;1.80;1.05;;;;;;;19.71;42.46;102524.06;16144079;19;129420;-58
2022/05/08 03:21:57;;;;;;;2.40;1.20;;;;;;;19.70;42.42;102519.56;16149266;19;129389;-58
2022/05/08 03:27:19;;;;;;;1.83;1.10;;;;;;;19.69;42.09;102521.47;16149976;19;129502;-58
2022/05/08 03:32:40;;;;;;;2.03;1.05;;;;;;;19.67;41.88;102531.97;16149402;19;129153;-58
2022/05/08 03:38:02;;;;;;;2.22;1.20;;;;;;;19.67;42.07;102526.41;16142967;19;129738;-58
2022/05/08 03:43:24;;;;;;;2.47;1.20;;;;;;;19.67;42.06;102529.19;16147009;19;129964;-58
2022/05/08 03:48:45;;;;;;;2.22;1.13;;;;;;;19.66;41.68;102533.03;16147355;19;129971;-58
2022/05/08 03:54:09;;;;;;;2.50;1.27;;;;;;;19.66;41.75;102532.16;16145500;19;129933;-58
2022/05/08 03:59:33;;;;;;;1.73;1.30;;;;;;;19.65;41.59;102534.09;16143636;19;129507;-58
2022/05/08 04:04:55;;;;;;;2.93;1.10;;;;;;;19.65;41.93;102536.88;16149591;19;129513;-58
2022/05/08 04:10:17;;;;;;;2.28;1.33;;;;;;;19.62;41.85;102537.28;16148283;19;129981;-58
2022/05/08 04:21:19;;;;;;;1.90;1.25;;;;;;;19.61;41.57;102541.13;16145209;19;129096;-58
2022/05/08 04:26:41;;;;;;;2.83;1.48;;;;;;;19.59;41.29;102543.25;16146349;19;129757;-57
2022/05/08 04:32:04;;;;;;;1.63;1.20;;;;;;;19.57;41.52;102550.94;16145958;19;129660;-58
2022/05/08 04:37:25;;;;;;;3.10;1.70;;;;;;;19.58;41.56;102560.97;16141778;19;128967;-58
2022/05/08 04:42:47;;;;;;;2.13;1.25;;;;;;;19.56;41.06;102560.38;16145016;19;129859;-60
2022/05/08 04:48:09;;;;;;;3.20;1.42;;;;;;;19.55;41.36;102568.88;16145597;19;129629;-58
2022/05/08 04:53:31;;;;;;;3.55;1.88;;;;;;;19.52;41.29;102575.72;16141365;19;129902;-58
2022/05/08 04:58:52;;;;;;;2.40;1.38;;;;;;;19.51;41.42;102585.13;16143848;19;131589;-58
2022/05/08 05:04:14;;;;;;;4.32;1.98;;;;;;;19.50;41.28;102594.50;16143048;19;129431;-58
2022/05/08 05:09:36;;;;;;;3.78;1.90;;;;;;;19.51;40.99;102596.22;16140553;19;129641;-58
2022/05/08 05:14:59;;;;;;;3.38;1.92;;;;;;;19.49;41.21;102593.66;16139963;19;129430;-58
2022/05/08 05:20:21;;;;;;;2.97;1.92;;;;;;;19.47;40.80;102600.47;16141178;19;129473;-58
2022/05/08 05:25:43;;;;;;;6.68;1.50;;;;;;;19.47;40.95;102611.59;16143063;19;128899;-59
2022/05/08 05:31:05;;;;;;;4.97;1.90;;;;;;;19.46;41.08;102609.88;16139988;19;128999;-57
2022/05/08 05:36:26;;;;;;;2.63;1.60;;;;;;;19.46;40.54;102607.97;16138705;19;129372;-58
2022/05/08 05:41:48;;;;;;;3.83;1.85;;;;;;;19.45;40.96;102620.13;16141814;19;131153;-58
2022/05/08 05:53:04;;;;;;;4.63;1.45;;;;;;;19.53;40.36;102632.97;16138185;19;128941;-57
2022/05/08 05:58:25;;;;;;;3.00;1.30;;;;;;;19.75;40.10;102646.66;16136654;19;130232;-57
2022/05/08 06:03:47;;;;;;;2.40;1.50;;;;;;;19.99;40.19;102650.75;16142271;19;129819;-58
2022/05/08 06:09:09;;;;;;;4.97;1.45;;;;;;;20.24;39.39;102653.75;16142617;19;129151;-58
2022/05/08 06:14:31;;;;;;;3.80;1.58;;;;;;;20.44;39.32;102655.63;16134683;19;131529;-58
2022/05/08 06:19:53;;;;;;;3.22;1.10;;;;;;;20.55;39.33;102668.00;16140386;19;129020;-58
2022/05/08 06:25:14;;;;;;;2.83;1.35;;;;;;;20.57;38.93;102666.72;16137328;19;129457;-58
2022/05/08 06:30:36;;;;;;;3.95;1.35;;;;;;;20.52;38.71;102674.88;16138143;19;129691;-58
2022/05/08 06:35:58;;;;;;;2.53;1.20;;;;;;;20.47;38.73;102671.88;16134201;19;129038;-58
2022/05/08 06:41:20;;;;;;;4.45;1.45;;;;;;;20.41;38.68;102679.16;16136200;19;129507;-58
2022/05/08 06:46:42;;;;;;;5.35;1.88;;;;;;;20.35;38.99;102680.03;16136947;19;129999;-58
2022/05/08 06:52:04;;;;;;;1.88;1.00;;;;;;;20.28;38.59;102685.59;16131830;19;128875;-58
2022/05/08 06:57:25;;;;;;;6.95;1.45;;;;;;;20.24;38.57;102689.03;16133734;19;129465;-54
2022/05/08 07:02:47;;;;;;;8.52;1.73;;;;;;;20.22;38.73;102694.78;16133642;19;129533;-55
2022/05/08 07:08:09;;;;;;;4.40;1.58;;;;;;;20.26;38.48;102700.75;16136134;19;129463;-48
2022/05/08 07:13:33;;;;;;;7.25;1.92;;;;;;;20.32;38.19;102696.25;16129028;19;129509;-48
2022/05/08 07:18:55;;;;;;;7.93;1.52;;;;;;;20.36;38.69;102697.56;16127194;19;129189;-49
2022/05/08 07:24:16;;;;;;;5.43;1.80;;;;;;;20.37;38.22;102700.09;16132548;19;130460;-50
2022/05/08 07:29:42;;;;;;;8.50;1.85;;;;;;;20.42;38.40;102691.16;16132659;19;131962;-54
2022/05/08 07:40:47;;;;;;;19.02;2.15;;;;;;;20.54;38.24;102703.31;16150505;19;129907;-55
2022/05/08 07:46:09;;;;;;;13.90;2.03;;;;;;;20.62;38.38;102701.38;16149132;19;129464;-52
2022/05/08 07:51:31;;;;;;;16.13;2.75;;;;;;;20.70;38.28;102701.13;16147604;19;129114;-53
2022/05/08 07:56:53;;;;;;;9.95;2.15;;;;;;;20.77;37.96;102707.59;16145213;19;129030;-51
2022/05/08 08:02:14;;;;;;;11.60;2.53;;;;;;;20.81;38.31;102708.84;16146109;19;129572;-52
2022/05/08 08:07:37;;;;;;;17.83;2.60;;;;;;;20.85;37.95;102714.84;16144052;19;129075;-52
2022/05/08 08:12:58;;;;;;;10.98;3.05;;;;;;;20.82;37.88;102707.75;16146581;19;129704;-52
2022/05/08 08:18:24;;;;;;;16.45;2.95;;;;;;;20.81;37.76;102717.19;16139456;19;129307;-53
2022/05/08 08:23:46;;;;;;;15.05;3.38;;;;;;;20.81;37.44;102719.97;16142972;19;130312;-54
2022/05/08 08:29:08;;;;;;;18.08;3.83;;;;;;;20.81;37.08;102719.97;16143032;19;130561;-51
2022/05/08 08:34:29;;;;;;;15.00;3.45;;;;;;;20.81;36.92;102716.34;16139685;19;130108;-48
2022/05/08 08:39:51;;;;;;;23.20;3.80;;;;;;;20.86;37.22;102714.63;16140773;19;129921;-42
2022/05/08 08:50:54;;;;;;;16.92;3.35;;;;;;;20.89;36.89;102725.31;16141118;19;130266;-39
2022/05/08 08:56:17;;;;;;;11.75;2.78;;;;;;;20.94;36.33;102719.09;16140161;19;130127;-42
2022/05/08 09:01:43;;;;;;;13.45;2.67;;;;;;;21.00;36.57;102720.13;16140140;19;129798;-41
2022/05/08 09:07:05;;;;;;;11.88;3.03;;;;;;;21.03;36.44;102722.50;16142059;19;129455;-41
2022/05/08 09:12:29;;;;;;;10.13;2.13;;;;;;;21.05;36.38;102723.97;16142828;19;129272;-43
2022/05/08 09:17:56;;;;;;;10.15;2.30;;;;;;;21.07;35.99;102718.19;16130972;19;130688;-42
2022/05/08 09:23:21;;;;;;;13.93;2.90;;;;;;;21.04;35.89;102715.84;16134191;19;131355;-46
2022/05/08 09:28:44;;;;;;;14.50;2.90;;;;;;;21.03;35.59;102719.72;16135805;19;130495;-45
2022/05/08 09:34:06;;;;;;;14.80;2.53;;;;;;;20.99;35.72;102712.88;16132762;19;130156;-40
2022/05/08 09:39:28;;;;;;;12.50;2.40;;;;;;;20.97;35.30;102713.09;16130838;19;130111;-40
2022/05/08 09:45:05;;;;;;;11.10;2.88;;;;;;;20.93;35.08;102724.84;16134700;19;129653;-45
2022/05/08 09:50:27;;;;;;;16.27;2.58;;;;;;;20.85;34.69;102724.03;16138954;19;131471;-40
2022/05/08 09:55:49;;;;;;;13.60;2.17;;;;;;;20.83;34.59;102723.38;16133689;19;130544;-44
2022/05/08 10:01:13;;;;;;;10.23;2.10;;;;;;;20.78;34.92;102714.84;16138579;19;129146;-44
2022/05/08 10:06:37;;;;;;;12.13;2.28;;;;;;;20.77;34.33;102707.59;16140085;19;129786;-40
2022/05/08 10:17:41;;;;;;;10.63;2.25;;;;;;;20.73;34.34;102698.78;16133468;19;129591;-40
2022/05/08 10:23:03;;;;;;;7.28;1.90;;;;;;;20.73;34.23;102692.34;16135506;19;129926;-42
2022/05/08 10:28:24;;;;;;;5.75;1.95;;;;;;;20.73;34.67;102693.22;16136248;19;129680;-45
2022/05/08 10:34:32;;;;;;;6.13;1.77;;;;;;;20.72;34.32;102685.97;16137372;19;129419;-46
2022/05/08 10:39:59;;;;;;;7.47;1.70;;;;;;;20.72;34.42;102682.31;16119584;19;130241;-43
2022/05/08 10:45:33;;;;;;;6.20;1.50;;;;;;;20.72;34.13;102685.97;16128587;19;129391;-47
2022/05/08 10:50:59;;;;;;;10.23;1.83;;;;;;;20.73;34.72;102689.56;16132115;19;129869;-42
2022/05/08 10:56:21;;;;;;;7.78;1.58;;;;;;;20.71;34.46;102683.38;16133149;19;130099;-43
2022/05/08 11:01:50;;;;;;;5.72;1.70;;;;;;;20.70;34.22;102684.44;16128053;19;130548;-43
2022/05/08 11:07:12;;;;;;;7.43;1.85;;;;;;;20.65;33.95;102678.69;16133436;19;129661;-41
2022/05/08 11:12:33;;;;;;;8.32;1.88;;;;;;;20.65;33.53;102684.25;16144808;19;130060;-41
2022/05/08 11:18:07;;;;;;;7.63;1.60;;;;;;;20.66;33.38;102677.63;16139233;19;131975;-41
2022/05/08 11:23:42;;;;;;;9.65;1.70;;;;;;;20.63;32.82;102670.56;16140955;19;129159;-44
2022/05/08 11:29:04;;;;;;;10.40;1.30;;;;;;;20.63;32.66;102665.00;16145237;19;130569;-43
2022/05/08 11:40:08;;;;;;;9.00;1.73;;;;;;;20.60;32.41;102660.72;16140248;19;129998;-47
2022/05/08 11:45:30;;;;;;;5.32;1.45;;;;;;;20.60;32.51;102659.88;16142216;19;130210;-46
2022/05/08 11:50:54;;;;;;;5.05;1.30;;;;;;;20.60;32.04;102655.16;16142654;19;129483;-46
2022/05/08 11:56:29;;;;;;;3.40;1.43;;;;;;;20.56;31.81;102648.31;16136666;19;130136;-42
2022/05/08 12:01:52;;;;;;;5.70;1.35;;;;;;;20.53;32.33;102648.78;16142372;19;129434;-42
2022/05/08 12:07:15;;;;;;;5.60;1.45;;;;;;;20.53;32.47;102636.78;16138653;19;130218;-46
2022/05/08 12:12:38;;;;;;;8.48;1.42;;;;;;;20.53;32.42;102637.66;16141035;19;130095;-44
2022/05/08 12:18:02;;;;;;;3.60;1.00;;;;;;;20.55;32.58;102624.41;16139058;19;129629;-43
2022/05/08 12:23:30;;;;;;;3.67;0.90;;;;;;;20.56;32.39;102620.53;16141777;19;129603;-42
2022/05/08 12:28:57;;;;;;;3.35;0.70;;;;;;;20.59;32.65;102616.47;16141387;19;129831;-44
2022/05/08 12:34:20;;;;;;;4.28;1.15;;;;;;;20.60;32.75;102612.63;16140508;19;129847;-43
2022/05/08 12:39:43;;;;;;;4.43;1.48;;;;;;;20.60;32.78;102616.25;16125034;19;130857;-44
2022/05/08 12:45:06;;;;;;;3.03;0.70;;;;;;;20.60;32.86;102616.25;16138587;19;129461;-41
2022/05/08 12:50:28;;;;;;;2.30;0.85;;;;;;;20.62;32.71;102606.81;16136160;19;130508;-43
2022/05/08 12:55:50;;;;;;;4.22;1.20;;;;;;;20.62;32.64;102604.03;16135421;19;129846;-40
2022/05/08 13:01:12;;;;;;;3.35;1.10;;;;;;;20.62;32.92;102598.47;16129866;19;130578;-45
2022/05/08 13:06:34;;;;;;;6.32;1.20;;;;;;;20.64;32.67;102599.13;16128340;19;129060;-39
2022/05/08 13:11:57;;;;;;;1.08;0.50;;;;;;;20.65;32.51;102573.03;16130267;19;130480;-42
2022/05/08 13:17:18;;;;;;;4.28;1.13;;;;;;;20.67;32.73;102585.63;16127071;19;130416;-40
2022/05/08 13:22:42;;;;;;;4.78;1.30;;;;;;;20.65;32.39;102585.00;16123819;19;129679;-41
2022/05/08 13:28:04;;;;;;;4.60;1.02;;;;;;;20.65;32.42;102579.44;16129776;19;130003;-43
2022/05/08 13:33:26;;;;;;;4.95;1.00;;;;;;;20.65;32.65;102571.09;16136422;19;129388;-40
2022/05/08 13:38:48;;;;;;;3.95;0.93;;;;;;;20.66;32.38;102569.16;16137746;19;131326;-43
2022/05/08 13:44:09;;;;;;;9.60;1.40;;;;;;;20.68;31.86;102567.00;16140138;19;133110;-40
2022/05/08 13:49:31;;;;;;;5.55;1.08;;;;;;;20.71;32.26;102566.56;16138343;19;130427;-41
2022/05/08 13:54:53;;;;;;;4.55;1.00;;;;;;;20.70;31.68;102550.94;16137757;19;129312;-43
2022/05/08 14:00:15;;;;;;;5.18;1.17;;;;;;;20.70;31.72;102556.50;16133711;19;129809;-43
2022/05/08 14:05:37;;;;;;;2.92;0.80;;;;;;;20.69;31.60;102560.38;16131572;19;130610;-46
2022/05/08 14:10:59;;;;;;;2.65;0.80;;;;;;;20.69;31.57;102554.81;16130708;19;130560;-42
2022/05/08 14:16:21;;;;;;;4.80;1.00;;;;;;;20.71;31.63;102555.44;16128119;19;131644;-41
2022/05/08 14:21:43;;;;;;;3.40;1.08;;;;;;;20.72;31.66;102546.03;16136344;19;129382;-42
2022/05/08 14:27:06;;;;;;;5.90;1.00;;;;;;;20.72;31.43;102546.91;16129249;19;129758;-45
2022/05/08 14:38:13;;;;;;;6.72;1.17;;;;;;;20.71;31.73;102530.41;16130883;19;129552;-42
2022/05/08 14:43:34;;;;;;;15.00;2.17;;;;;;;20.71;31.77;102533.19;16150100;19;129129;-43
2022/05/08 14:48:56;;;;;;;18.45;4.05;;;;;;;20.69;31.83;102524.22;16165452;19;129627;-41
2022/05/08 14:54:18;;;;;;;15.88;3.00;;;;;;;20.68;31.85;102514.16;16161778;19;130249;-42
2022/05/08 14:59:40;;;;;;;15.13;2.50;;;;;;;20.68;31.88;102511.38;16155615;19;130379;-39
2022/05/08 15:05:02;;;;;;;18.33;3.20;;;;;;;20.67;31.59;102506.91;16162554;19;129616;-45
2022/05/08 15:10:25;;;;;;;19.65;3.20;;;;;;;20.68;31.86;102498.34;16164288;19;129979;-40
2022/05/08 15:15:47;;;;;;;17.45;2.75;;;;;;;20.72;31.73;102490.41;16152048;19;129556;-43
2022/05/08 15:21:08;;;;;;;15.65;2.88;;;;;;;20.74;31.86;102496.59;16156646;19;130871;-39
2022/05/08 15:26:30;;;;;;;12.55;2.28;;;;;;;20.73;31.59;102492.13;16159066;19;129367;-42
2022/05/08 15:31:52;;;;;;;13.02;2.30;;;;;;;20.73;31.43;102492.13;16160315;19;129924;-41
2022/05/08 15:37:14;;;;;;;13.60;2.03;;;;;;;20.73;31.53;102492.97;16157434;19;130324;-42
2022/05/08 15:42:35;;;;;;;13.82;2.20;;;;;;;20.76;31.75;102486.16;16160647;19;130343;-44
2022/05/08 15:47:57;;;;;;;16.27;2.90;;;;;;;20.79;31.79;102484.84;16158843;19;130245;-40
2022/05/08 15:53:19;;;;;;;13.45;2.20;;;;;;;20.81;31.85;102485.47;16152501;19;130512;-41
2022/05/08 15:58:41;;;;;;;11.70;2.20;;;;;;;20.79;31.69;102485.72;16139917;19;129693;-44
2022/05/08 16:04:05;;;;;;;9.95;1.98;;;;;;;20.81;31.64;102477.97;16139620;19;130078;-45
2022/05/08 16:09:27;;;;;;;12.90;2.43;;;;;;;20.80;31.42;102481.81;16139805;19;129703;-42
2022/05/08 16:26:09;;;;;;;10.30;1.48;;;;;;;20.79;31.43;102473.72;16141776;19;130304;-39
2022/05/08 16:31:31;;;;;;;8.70;2.00;;;;;;;20.82;31.56;102476.91;16140964;19;130635;-41
2022/05/08 16:36:53;;;;;;;13.48;2.13;;;;;;;20.84;31.24;102477.53;16138152;19;129688;-44
2022/05/08 16:42:17;;;;;;;9.80;2.10;;;;;;;20.87;31.27;102474.31;16136900;19;129313;-41
2022/05/08 16:47:39;;;;;;;11.32;2.03;;;;;;;20.90;31.36;102479.44;16134832;19;130775;-39
2022/05/08 16:53:00;;;;;;;13.82;2.35;;;;;;;20.96;31.29;102474.03;16135227;19;129732;-42
2022/05/08 16:58:22;;;;;;;14.50;2.00;;;;;;;20.98;31.69;102483.88;16134418;19;130510;-43
2022/05/08 17:03:44;;;;;;;16.55;2.60;;;;;;;20.99;31.72;102479.16;16143760;19;129493;-45
2022/05/08 17:09:06;;;;;;;16.25;2.15;;;;;;;21.00;31.75;102490.03;16137198;19;129746;-43
2022/05/08 17:14:28;;;;;;;14.75;2.42;;;;;;;21.01;31.72;102482.56;16134483;19;129686;-41
2022/05/08 17:19:50;;;;;;;19.15;7.22;;;;;;;21.06;32.09;102468.81;16135919;19;130707;-40
2022/05/08 17:25:12;;;;;;;26.58;8.85;;;;;;;21.09;31.80;102470.31;16142002;19;128911;-42
2022/05/08 17:30:34;;;;;;;24.08;8.70;;;;;;;21.10;32.06;102460.88;16142389;19;129808;-42
2022/05/08 17:36:01;;;;;;;21.75;8.32;;;;;;;21.10;31.77;102475.63;16141118;19;130222;-43
2022/05/08 17:41:22;;;;;;;17.33;6.97;;;;;;;21.07;32.29;102473.31;16135518;19;129579;-44
2022/05/08 17:46:44;;;;;;;20.35;6.95;;;;;;;21.03;31.96;102480.41;16140675;19;129906;-44
2022/05/08 17:52:06;;;;;;;14.90;6.95;;;;;;;21.00;32.16;102480.84;16139848;19;128874;-41
2022/05/08 17:57:28;;;;;;;12.05;5.15;;;;;;;20.95;32.33;102478.75;16137410;19;129823;-41
2022/05/08 18:08:32;;;;;;;14.85;4.60;;;;;;;20.88;32.75;102478.78;16134255;19;129920;-44
2022/05/08 18:13:53;;;;;;;10.38;3.80;;;;;;;20.88;32.56;102489.06;16131515;19;130562;-43
2022/05/08 18:19:15;;;;;;;14.00;4.15;;;;;;;20.85;32.96;102487.59;16121380;19;129831;-40
2022/05/08 18:24:37;;;;;;;8.75;3.78;;;;;;;20.83;32.80;102486.94;16132653;19;130764;-41
2022/05/08 18:29:58;;;;;;;11.07;3.50;;;;;;;20.81;32.76;102494.66;16129896;19;129522;-39
2022/05/08 18:35:21;;;;;;;10.57;3.40;;;;;;;20.78;33.08;102495.13;16131346;19;129620;-40
2022/05/08 18:40:42;;;;;;;9.57;3.47;;;;;;;20.76;33.57;102497.28;16126942;19;130238;-43
2022/05/08 18:46:04;;;;;;;7.90;3.22;;;;;;;20.73;33.24;102504.09;16132503;19;130308;-41
2022/05/08 18:51:26;;;;;;;9.35;2.72;;;;;;;20.76;33.36;102513.97;16131085;19;129604;-41
2022/05/08 18:56:49;;;;;;;11.18;3.38;;;;;;;20.74;33.76;102514.13;16131066;19;129902;-39
2022/05/08 19:02:10;;;;;;;13.38;3.38;;;;;;;20.72;33.78;102526.56;16126441;19;129821;-42
2022/05/08 19:07:33;;;;;;;10.15;2.75;;;;;;;20.71;33.92;102524.84;16133233;19;129647;-45
2022/05/08 19:12:55;;;;;;;16.27;2.72;;;;;;;20.67;34.15;102529.16;16131766;19;129915;-44
2022/05/08 19:18:17;;;;;;;17.05;2.53;;;;;;;20.63;34.41;102533.47;16132563;19;130078;-42
2022/05/08 19:23:39;;;;;;;11.05;2.00;;;;;;;20.61;34.18;102533.69;16133967;19;130066;-42
2022/05/08 19:29:00;;;;;;;13.65;2.25;;;;;;;20.55;34.20;102546.53;16138346;19;129766;-42
2022/05/08 19:40:04;;;;;;;4.78;2.28;;;;;;;20.49;34.32;102552.97;16145497;19;129096;-44
2022/05/08 19:45:27;;;;;;;10.05;2.30;;;;;;;20.50;33.92;102565.81;16145001;19;130907;-43
2022/05/08 19:50:51;;;;;;;11.23;2.22;;;;;;;20.49;34.42;102572.44;16141784;19;128952;-47
2022/05/08 19:56:13;;;;;;;11.35;2.53;;;;;;;20.51;34.23;102581.41;16146057;19;130378;-44
2022/05/08 20:01:34;;;;;;;15.90;2.00;;;;;;;20.52;34.49;102597.03;16140639;19;129124;-43
2022/05/08 20:06:57;;;;;;;10.60;2.28;;;;;;;20.49;33.98;102591.91;16141591;19;129293;-46
2022/05/08 20:12:19;;;;;;;12.63;1.60;;;;;;;20.48;34.04;102595.75;16143623;19;129474;-43
2022/05/08 20:17:42;;;;;;;8.23;2.55;;;;;;;20.46;33.91;102597.88;16142762;19;129125;-45
2022/05/08 20:23:04;;;;;;;8.52;1.70;;;;;;;20.45;34.11;102601.72;16143329;19;130486;-44
2022/05/08 20:28:28;;;;;;;9.57;1.95;;;;;;;20.44;33.93;102603.66;16137584;19;129289;-42
2022/05/08 20:33:50;;;;;;;9.02;2.00;;;;;;;20.45;34.45;102601.72;16136577;19;130275;-41
2022/05/08 20:39:13;;;;;;;7.22;2.00;;;;;;;20.47;34.63;102607.09;16132924;19;130123;-42
2022/05/08 20:44:37;;;;;;;6.95;1.80;;;;;;;20.48;34.72;102606.88;16132754;19;129789;-40
2022/05/08 20:49:59;;;;;;;10.15;1.75;;;;;;;20.50;35.09;102607.50;16139769;19;130299;-42
2022/05/08 20:55:21;;;;;;;8.25;1.77;;;;;;;20.51;35.06;102614.78;16142115;19;130860;-42
2022/05/08 21:00:44;;;;;;;4.82;1.52;;;;;;;20.50;35.19;102615.84;16134679;19;130898;-44
2022/05/08 21:11:46;;;;;;;6.53;1.40;;;;;;;20.50;34.95;102621.41;16139770;19;130432;-44
2022/05/08 21:17:08;;;;;;;5.47;1.85;;;;;;;20.49;34.99;102616.91;16135686;19;129574;-44
2022/05/08 21:22:29;;;;;;;6.57;1.45;;;;;;;20.50;35.03;102612.19;16139009;19;129730;-43
2022/05/08 21:27:51;;;;;;;9.18;1.73;;;;;;;20.47;34.93;102616.28;16141621;19;129170;-42
2022/05/08 21:33:13;;;;;;;6.05;1.55;;;;;;;20.44;35.04;102616.69;16137747;19;129651;-44
2022/05/08 21:38:39;;;;;;;7.88;1.50;;;;;;;20.41;34.99;102609.66;16136871;19;129348;-45
2022/05/08 21:44:02;;;;;;;5.15;1.27;;;;;;;20.38;34.70;102617.59;16137570;19;133196;-43
2022/05/08 21:49:23;;;;;;;5.22;1.27;;;;;;;20.35;34.84;102618.88;16139914;19;129598;-45
2022/05/08 21:54:45;;;;;;;3.97;1.27;;;;;;;20.32;34.83;102618.44;16136066;19;130251;-44
2022/05/08 22:00:10;;;;;;;4.78;1.50;;;;;;;20.30;34.61;102627.00;16121025;19;129307;-42
2022/05/08 22:05:32;;;;;;;6.72;1.02;;;;;;;20.27;34.64;102622.75;16124330;19;131298;-46
2022/05/08 22:10:55;;;;;;;3.53;1.38;;;;;;;20.24;34.85;102617.59;16126142;19;129597;-42
2022/05/08 22:16:20;;;;;;;3.95;1.40;;;;;;;20.23;34.94;102627.00;16131151;19;129452;-43
2022/05/08 22:21:50;;;;;;;2.53;0.90;;;;;;;20.21;34.75;102617.19;16131268;19;129550;-47
2022/05/08 22:27:12;;;;;;;6.65;1.20;;;;;;;20.18;34.88;102617.63;16136951;19;129182;-45
2022/05/08 22:32:34;;;;;;;2.88;0.77;;;;;;;20.16;34.95;102626.19;16135530;19;129102;-47
2022/05/08 22:37:55;;;;;;;2.58;0.82;;;;;;;20.13;34.64;102623.81;16136639;19;129449;-48
2022/05/08 22:43:17;;;;;;;3.05;0.90;;;;;;;20.11;35.12;102623.19;16128255;19;130025;-47
2022/05/08 22:48:39;;;;;;;4.93;0.88;;;;;;;20.09;34.79;102626.19;16136225;19;129611;-47
2022/05/08 22:54:01;;;;;;;4.30;1.40;;;;;;;20.07;34.71;102633.00;16135655;19;129592;-45
2022/05/08 22:59:23;;;;;;;1.95;0.65;;;;;;;20.06;34.81;102625.75;16130059;19;130777;-49
2022/05/08 23:04:44;;;;;;;2.85;0.90;;;;;;;20.03;34.72;102620.63;16131633;19;129697;-44
2022/05/08 23:10:06;;;;;;;4.30;1.17;;;;;;;20.02;34.97;102618.91;16143492;19;130004;-51
2022/05/08 23:15:28;;;;;;;2.33;0.75;;;;;;;20.01;34.90;102629.16;16139746;19;130462;-50
2022/05/08 23:20:56;;;;;;;3.00;0.98;;;;;;;19.99;34.82;102621.06;16142774;19;129530;-49
2022/05/08 23:26:18;;;;;;;3.58;0.80;;;;;;;19.97;34.75;102623.16;16136424;19;129667;-46
2022/05/08 23:31:41;;;;;;;2.70;0.80;;;;;;;19.97;35.03;102622.31;16136114;19;129442;-51
2022/05/08 23:37:04;;;;;;;3.95;0.70;;;;;;;19.96;34.93;102615.88;16138892;19;130598;-48
2022/05/08 23:42:27;;;;;;;1.98;0.52;;;;;;;19.94;34.71;102617.19;16138293;19;129565;-50
2022/05/08 23:47:49;;;;;;;2.30;0.95;;;;;;;19.92;35.00;102614.63;16144269;19;129471;-50
2022/05/08 23:53:12;;;;;;;2.85;0.68;;;;;;;19.90;34.74;102605.66;16145369;19;130164;-49
2022/05/08 23:58:34;;;;;;;2.42;0.60;;;;;;;19.88;34.87;102602.22;16146577;19;130582;-50
